createdAt,value
2019-01-16T05:08:24.619Z,33.80
2019-01-16T05:11:19.107Z,35.10
2019-01-16T05:14:30.236Z,34.90
2019-01-16T05:17:27.786Z,34.70
2019-01-16T05:20:30.967Z,34.40
2019-01-16T05:23:32.043Z,33.90
2019-01-16T05:26:35.637Z,33.80
2019-01-16T05:29:36.006Z,33.60
2019-01-16T05:32:39.845Z,33.60
2019-01-16T05:35:34.203Z,33.40
2019-01-16T05:38:28.810Z,33.30
2019-01-16T05:41:32.727Z,33.20
2019-01-16T05:44:34.023Z,33.00
2019-01-16T05:47:34.603Z,32.70
2019-01-16T05:50:29.582Z,32.60
2019-01-16T05:53:36.479Z,32.30
2019-01-16T05:56:47.548Z,32.20
2019-01-16T05:59:48.388Z,31.90
2019-01-16T06:02:52.473Z,32.00
2019-01-16T06:06:02.283Z,32.10
2019-01-16T13:51:54.365Z,31.20
2019-01-16T13:55:01.075Z,32.90
2019-01-16T13:58:01.431Z,32.70
2019-01-16T14:00:58.759Z,32.50
2019-01-16T14:03:55.830Z,32.60
2019-01-16T14:06:50.858Z,32.40
2019-01-16T14:09:57.285Z,31.70
2019-01-16T14:13:01.023Z,31.60
2019-01-16T14:15:55.573Z,31.10
2019-01-16T14:18:50.470Z,31.20
2019-01-16T14:22:00.162Z,30.40
2019-01-16T14:25:03.570Z,30.40
2019-01-16T14:28:04.226Z,30.50
2019-01-16T14:31:10.736Z,30.50
2019-01-16T14:34:05.377Z,30.50
2019-01-16T14:37:12.725Z,30.50
2019-01-16T14:40:10.879Z,30.50
2019-01-16T14:43:14.879Z,30.50
2019-01-16T14:46:18.526Z,30.00
2019-01-16T14:49:25.209Z,30.50
2019-01-16T14:52:25.858Z,30.60
2019-01-16T14:55:22.943Z,30.80
2019-01-16T14:58:30.081Z,30.60
2019-01-16T15:01:34.737Z,30.60
2019-01-16T15:07:45.373Z,30.60
2019-01-16T15:10:56.391Z,30.60
2019-01-16T15:14:00.580Z,30.60
2019-01-16T15:17:10.701Z,30.60
2019-01-16T15:20:07.460Z,30.60
2019-01-16T15:23:02.565Z,30.60
2019-01-16T15:26:03.508Z,30.70
2019-01-16T15:29:10.525Z,30.90
2019-01-16T15:32:05.827Z,30.80
2019-01-16T15:38:28.363Z,30.80
2019-01-16T15:41:44.797Z,30.90
2019-01-16T15:44:48.055Z,30.90
2019-01-16T15:47:54.719Z,30.80
2019-01-16T15:50:49.362Z,30.80
2019-01-16T15:53:50.163Z,30.90
2019-01-16T15:56:47.128Z,31.00
2019-01-16T15:59:41.477Z,30.80
2019-01-16T16:02:52.269Z,30.80
2019-01-16T16:05:49.966Z,30.80
2019-01-16T16:09:00.725Z,30.90
2019-01-16T16:11:55.757Z,30.80
2019-01-16T16:14:56.261Z,30.90
2019-01-16T16:17:51.295Z,29.90
2019-01-16T16:20:45.974Z,30.80
2019-01-16T16:23:46.119Z,30.80
2019-01-16T16:26:52.742Z,30.80
2019-01-16T16:29:56.197Z,30.80
2019-01-16T16:32:53.874Z,30.80
2019-01-16T16:35:54.296Z,30.90
2019-01-16T16:38:57.945Z,30.90
2019-01-16T16:41:55.181Z,30.90
2019-01-16T16:45:05.911Z,30.90
2019-01-16T16:48:17.317Z,31.10
2019-01-16T16:51:12.223Z,31.10
2019-01-16T16:54:07.017Z,31.10
2019-01-16T16:57:10.439Z,31.10
2019-01-16T17:00:25.357Z,31.00
2019-01-16T17:03:20.276Z,31.00
2019-01-16T17:06:20.569Z,31.40
2019-01-16T17:09:23.990Z,30.80
2019-01-16T17:12:35.110Z,31.00
2019-01-16T17:15:44.769Z,31.00
2019-01-16T17:18:54.450Z,30.90
2019-01-16T17:21:55.190Z,31.00
2019-01-16T17:24:49.775Z,31.00
2019-01-16T17:28:01.145Z,30.90
2019-01-16T17:30:58.654Z,31.00
2019-01-16T17:34:01.872Z,31.00
2019-01-16T17:37:13.070Z,31.00
2019-01-16T17:40:18.592Z,31.00
2019-01-16T17:43:13.171Z,31.10
2019-01-16T17:46:13.579Z,31.20
2019-01-16T17:49:24.250Z,31.10
2019-01-16T17:52:22.047Z,31.20
2019-01-16T17:55:33.204Z,31.20
2019-01-16T17:58:44.404Z,31.20
2019-01-16T18:01:39.390Z,31.20
2019-01-16T18:04:40.595Z,31.20
2019-01-16T18:07:37.912Z,31.20
2019-01-16T18:10:35.352Z,31.30
2019-01-16T18:13:35.630Z,31.30
2019-01-16T18:16:30.368Z,31.30
2019-01-16T18:19:37.633Z,31.40
2019-01-16T18:22:32.517Z,31.30
2019-01-16T18:25:27.246Z,31.30
2019-01-16T18:28:36.672Z,31.30
2019-01-16T18:31:30.966Z,31.30
2019-01-16T18:34:34.516Z,31.40
2019-01-16T18:37:29.101Z,31.40
2019-01-16T18:40:29.163Z,31.40
2019-01-16T18:43:32.842Z,31.90
2019-01-16T18:46:44.105Z,31.70
2019-01-16T18:49:45.189Z,31.60
2019-01-16T18:52:39.523Z,32.10
2019-01-16T18:55:36.940Z,31.60
2019-01-16T18:58:31.650Z,33.10
2019-01-16T19:01:34.831Z,33.90
2019-01-16T19:04:29.449Z,36.00
2019-01-16T19:07:40.522Z,35.60
2019-01-16T19:10:44.316Z,35.70
2019-01-16T19:13:38.950Z,35.80
2019-01-16T19:16:33.682Z,35.90
2019-01-16T19:19:37.569Z,35.80
2019-01-16T19:22:48.472Z,36.00
2019-01-16T19:25:49.043Z,36.10
2019-01-16T19:28:54.328Z,36.10
2019-01-16T19:31:51.841Z,35.70
2019-01-16T19:34:58.388Z,36.00
2019-01-16T19:37:55.662Z,36.10
2019-01-16T19:41:05.815Z,36.10
2019-01-16T19:44:08.842Z,35.50
2019-01-16T19:47:06.233Z,35.20
2019-01-16T19:50:03.748Z,36.60
2019-01-16T19:53:16.434Z,35.20
2019-01-16T19:56:11.258Z,34.90
2019-01-16T19:59:06.178Z,35.20
2019-01-16T20:02:06.766Z,34.70
2019-01-16T20:05:01.425Z,34.50
2019-01-16T20:07:55.858Z,34.30
2019-01-16T20:10:56.327Z,34.40
2019-01-16T20:14:06.048Z,33.80
2019-01-16T20:17:00.516Z,34.00
2019-01-16T20:23:02.410Z,34.10
2019-01-16T20:25:59.631Z,33.50
2019-01-16T20:29:06.519Z,33.20
2019-01-16T20:32:04.197Z,33.20
2019-01-16T20:34:58.748Z,33.30
2019-01-16T20:37:56.228Z,32.90
2019-01-16T20:40:56.675Z,33.00
2019-01-16T20:43:51.434Z,32.70
2019-01-16T20:46:58.435Z,32.80
2019-01-16T20:50:09.377Z,33.00
2019-01-16T20:53:09.683Z,32.70
2019-01-16T20:56:10.082Z,32.90
2019-01-16T20:59:10.461Z,32.20
2019-01-16T21:02:04.902Z,31.60
2019-01-16T21:05:17.714Z,31.60
2019-01-16T21:08:12.594Z,32.60
2019-01-16T21:11:10.890Z,32.80
2019-01-16T21:14:21.993Z,31.60
2019-01-16T21:17:16.900Z,31.60
2019-01-16T21:20:13.049Z,31.60
2019-01-16T21:23:13.838Z,31.60
2019-01-16T21:26:23.837Z,31.80
2019-01-16T21:29:34.472Z,31.60
2019-01-16T21:32:45.519Z,31.80
2019-01-16T21:35:56.699Z,31.60
2019-01-16T21:38:57.215Z,31.50
2019-01-16T21:41:51.693Z,31.70
2019-01-16T21:45:02.664Z,31.50
2019-01-16T21:48:15.668Z,31.70
2019-01-16T21:51:26.168Z,31.60
2019-01-16T21:54:21.051Z,31.70
2019-01-16T21:57:34.274Z,31.60
2019-01-16T22:00:44.184Z,31.60
2019-01-16T22:03:55.324Z,31.80
2019-01-16T22:07:06.645Z,31.70
2019-01-16T22:10:01.196Z,31.80
2019-01-16T22:12:55.845Z,31.70
2019-01-16T22:16:02.314Z,31.70
2019-01-16T22:18:56.650Z,31.60
2019-01-16T22:21:51.115Z,31.60
2019-01-16T22:24:54.441Z,31.70
2019-01-16T22:28:24.845Z,31.70
2019-01-16T22:31:29.129Z,31.70
2019-01-16T22:34:39.701Z,31.80
2019-01-16T22:37:37.601Z,31.60
2019-01-16T22:40:32.200Z,31.60
2019-01-16T22:43:26.596Z,31.60
2019-01-16T22:46:23.838Z,31.60
2019-01-16T22:49:21.533Z,31.80
2019-01-16T22:52:32.441Z,31.70
2019-01-16T22:55:43.513Z,31.70
2019-01-16T22:58:38.278Z,31.60
